sensor_id;sensor_type;location;lat;lon;timestamp;pressure;altitude;pressure_sealevel;temperature;humidity
20023;BME280;10172;42.054;24.546;2022-07-29T00:00:10;98192.41;;;22.51;100.00
20023;BME280;10172;42.054;24.546;2022-07-29T00:02:36;98174.97;;;22.91;96.54
20023;BME280;10172;42.054;24.546;2022-07-29T00:05:03;98149.66;;;23.13;93.70
20023;BME280;10172;42.054;24.546;2022-07-29T00:07:28;98164.00;;;21.85;100.00
20023;BME280;10172;42.054;24.546;2022-07-29T00:09:54;98177.84;;;21.60;100.00
20023;BME280;10172;42.054;24.546;2022-07-29T00:12:21;98185.53;;;21.79;100.00
20023;BME280;10172;42.054;24.546;2022-07-29T00:14:47;98190.03;;;21.56;100.00
20023;BME280;10172;42.054;24.546;2022-07-29T00:17:12;98167.91;;;21.83;100.00
20023;BME280;10172;42.054;24.546;2022-07-29T00:19:38;98158.72;;;22.00;100.00
20023;BME280;10172;42.054;24.546;2022-07-29T00:22:03;98160.53;;;22.30;97.64
20023;BME280;10172;42.054;24.546;2022-07-29T00:24:29;98170.50;;;21.29;100.00
20023;BME280;10172;42.054;24.546;2022-07-29T00:26:54;98184.97;;;21.44;100.00
20023;BME280;10172;42.054;24.546;2022-07-29T00:29:19;98183.19;;;21.29;100.00
20023;BME280;10172;42.054;24.546;2022-07-29T00:31:45;98148.63;;;20.60;100.00
20023;BME280;10172;42.054;24.546;2022-07-29T00:34:10;98177.63;;;20.98;100.00
20023;BME280;10172;42.054;24.546;2022-07-29T00:36:54;98175.59;;;21.24;100.00
20023;BME280;10172;42.054;24.546;2022-07-29T00:39:20;98194.81;;;21.45;100.00
20023;BME280;10172;42.054;24.546;2022-07-29T00:41:45;98185.41;;;21.01;100.00
20023;BME280;10172;42.054;24.546;2022-07-29T00:44:11;98183.03;;;20.90;100.00
20023;BME280;10172;42.054;24.546;2022-07-29T00:46:36;98172.25;;;20.66;100.00
20023;BME280;10172;42.054;24.546;2022-07-29T00:49:02;98159.94;;;20.55;100.00
20023;BME280;10172;42.054;24.546;2022-07-29T00:51:27;98199.59;;;20.63;100.00
20023;BME280;10172;42.054;24.546;2022-07-29T00:53:53;98169.50;;;20.98;100.00
20023;BME280;10172;42.054;24.546;2022-07-29T00:56:19;98163.59;;;21.03;100.00
20023;BME280;10172;42.054;24.546;2022-07-29T00:58:46;98201.28;;;20.32;100.00
20023;BME280;10172;42.054;24.546;2022-07-29T01:01:13;98177.69;;;19.84;100.00
20023;BME280;10172;42.054;24.546;2022-07-29T01:03:38;98198.09;;;19.78;100.00
20023;BME280;10172;42.054;24.546;2022-07-29T01:06:04;98160.25;;;19.62;100.00
20023;BME280;10172;42.054;24.546;2022-07-29T01:08:31;98194.47;;;20.19;100.00
20023;BME280;10172;42.054;24.546;2022-07-29T01:10:58;98176.66;;;20.35;100.00
20023;BME280;10172;42.054;24.546;2022-07-29T01:13:25;98174.94;;;20.58;100.00
20023;BME280;10172;42.054;24.546;2022-07-29T01:15:56;98176.19;;;19.81;100.00
20023;BME280;10172;42.054;24.546;2022-07-29T01:18:41;98197.22;;;20.27;100.00
20023;BME280;10172;42.054;24.546;2022-07-29T01:23:52;98193.13;;;20.23;100.00
20023;BME280;10172;42.054;24.546;2022-07-29T01:26:45;98195.56;;;20.43;100.00
20023;BME280;10172;42.054;24.546;2022-07-29T01:29:28;98188.31;;;20.59;100.00
20023;BME280;10172;42.054;24.546;2022-07-29T01:34:37;98183.91;;;21.62;100.00
20023;BME280;10172;42.054;24.546;2022-07-29T01:37:26;98196.88;;;21.35;100.00
20023;BME280;10172;42.054;24.546;2022-07-29T01:39:55;98180.53;;;20.48;100.00
20023;BME280;10172;42.054;24.546;2022-07-29T01:42:32;98191.50;;;20.39;100.00
20023;BME280;10172;42.054;24.546;2022-07-29T01:45:16;98202.22;;;21.52;100.00
20023;BME280;10172;42.054;24.546;2022-07-29T01:47:46;98185.59;;;21.55;100.00
20023;BME280;10172;42.054;24.546;2022-07-29T01:50:17;98190.19;;;21.62;100.00
20023;BME280;10172;42.054;24.546;2022-07-29T01:52:56;98188.09;;;22.11;100.00
20023;BME280;10172;42.054;24.546;2022-07-29T01:55:29;98191.16;;;22.31;100.00
20023;BME280;10172;42.054;24.546;2022-07-29T01:57:57;98208.41;;;20.73;100.00
20023;BME280;10172;42.054;24.546;2022-07-29T02:00:25;98162.09;;;20.27;100.00
20023;BME280;10172;42.054;24.546;2022-07-29T02:02:52;98171.53;;;21.04;100.00
20023;BME280;10172;42.054;24.546;2022-07-29T02:05:20;98183.47;;;21.42;100.00
20023;BME280;10172;42.054;24.546;2022-07-29T02:07:47;98178.34;;;20.92;100.00
20023;BME280;10172;42.054;24.546;2022-07-29T02:10:16;98143.88;;;20.78;100.00
20023;BME280;10172;42.054;24.546;2022-07-29T02:12:44;98160.91;;;19.56;100.00
20023;BME280;10172;42.054;24.546;2022-07-29T02:15:11;98183.31;;;20.06;100.00
20023;BME280;10172;42.054;24.546;2022-07-29T02:17:53;98172.09;;;20.59;100.00
20023;BME280;10172;42.054;24.546;2022-07-29T02:20:19;98176.63;;;20.83;100.00
20023;BME280;10172;42.054;24.546;2022-07-29T02:22:46;98170.56;;;20.73;100.00
20023;BME280;10172;42.054;24.546;2022-07-29T02:25:13;98174.28;;;20.32;100.00
20023;BME280;10172;42.054;24.546;2022-07-29T02:27:41;98155.97;;;19.43;100.00
20023;BME280;10172;42.054;24.546;2022-07-29T02:30:08;98160.41;;;19.27;100.00
20023;BME280;10172;42.054;24.546;2022-07-29T02:32:36;98140.38;;;19.03;100.00
20023;BME280;10172;42.054;24.546;2022-07-29T02:35:03;98147.75;;;19.61;100.00
20023;BME280;10172;42.054;24.546;2022-07-29T02:37:29;98171.06;;;20.76;100.00
20023;BME280;10172;42.054;24.546;2022-07-29T02:39:57;98139.44;;;20.12;100.00
20023;BME280;10172;42.054;24.546;2022-07-29T02:42:24;98161.78;;;19.64;100.00
20023;BME280;10172;42.054;24.546;2022-07-29T02:44:51;98173.31;;;19.15;100.00
20023;BME280;10172;42.054;24.546;2022-07-29T02:47:32;98152.56;;;19.07;100.00
20023;BME280;10172;42.054;24.546;2022-07-29T02:50:00;98178.16;;;19.79;100.00
20023;BME280;10172;42.054;24.546;2022-07-29T02:55:14;98167.53;;;20.44;100.00
20023;BME280;10172;42.054;24.546;2022-07-29T02:57:44;98173.09;;;20.50;100.00
20023;BME280;10172;42.054;24.546;2022-07-29T03:00:12;98157.41;;;20.54;100.00
20023;BME280;10172;42.054;24.546;2022-07-29T03:02:41;98180.84;;;20.94;100.00
20023;BME280;10172;42.054;24.546;2022-07-29T03:05:11;98136.56;;;21.11;100.00
20023;BME280;10172;42.054;24.546;2022-07-29T03:07:39;98164.75;;;20.19;100.00
20023;BME280;10172;42.054;24.546;2022-07-29T03:10:06;98176.13;;;20.79;100.00
20023;BME280;10172;42.054;24.546;2022-07-29T03:12:32;98152.31;;;20.67;100.00
20023;BME280;10172;42.054;24.546;2022-07-29T03:14:59;98163.34;;;19.83;100.00
20023;BME280;10172;42.054;24.546;2022-07-29T03:17:26;98164.28;;;19.58;100.00
20023;BME280;10172;42.054;24.546;2022-07-29T03:19:52;98182.59;;;19.88;100.00
20023;BME280;10172;42.054;24.546;2022-07-29T03:22:17;98148.78;;;19.68;100.00
20023;BME280;10172;42.054;24.546;2022-07-29T03:24:43;98153.34;;;19.00;100.00
20023;BME280;10172;42.054;24.546;2022-07-29T03:27:08;98156.38;;;19.31;100.00
20023;BME280;10172;42.054;24.546;2022-07-29T03:29:34;98174.84;;;19.93;100.00
20023;BME280;10172;42.054;24.546;2022-07-29T03:32:01;98176.31;;;20.30;100.00
20023;BME280;10172;42.054;24.546;2022-07-29T03:34:27;98187.13;;;20.46;100.00
20023;BME280;10172;42.054;24.546;2022-07-29T03:36:52;98182.41;;;20.64;100.00
20023;BME280;10172;42.054;24.546;2022-07-29T03:39:21;98220.56;;;20.61;100.00
20023;BME280;10172;42.054;24.546;2022-07-29T03:41:49;98203.00;;;20.33;100.00
20023;BME280;10172;42.054;24.546;2022-07-29T03:44:17;98200.63;;;20.38;100.00
20023;BME280;10172;42.054;24.546;2022-07-29T03:46:45;98184.09;;;20.81;100.00
20023;BME280;10172;42.054;24.546;2022-07-29T03:49:15;98189.09;;;20.27;100.00
20023;BME280;10172;42.054;24.546;2022-07-29T03:51:42;98214.56;;;20.17;100.00
20023;BME280;10172;42.054;24.546;2022-07-29T03:54:08;98203.00;;;20.65;100.00
20023;BME280;10172;42.054;24.546;2022-07-29T03:56:45;98190.63;;;20.22;100.00
20023;BME280;10172;42.054;24.546;2022-07-29T03:59:13;98218.03;;;20.67;100.00
20023;BME280;10172;42.054;24.546;2022-07-29T04:01:39;98205.84;;;21.20;100.00
20023;BME280;10172;42.054;24.546;2022-07-29T04:04:06;98218.09;;;21.55;100.00
20023;BME280;10172;42.054;24.546;2022-07-29T04:06:42;98225.47;;;21.22;100.00
20023;BME280;10172;42.054;24.546;2022-07-29T04:09:08;98226.63;;;20.87;100.00
20023;BME280;10172;42.054;24.546;2022-07-29T04:11:34;98215.81;;;20.79;100.00
20023;BME280;10172;42.054;24.546;2022-07-29T04:13:59;98211.97;;;20.98;100.00
20023;BME280;10172;42.054;24.546;2022-07-29T04:16:24;98198.75;;;21.27;100.00
20023;BME280;10172;42.054;24.546;2022-07-29T04:18:50;98198.91;;;21.25;100.00
20023;BME280;10172;42.054;24.546;2022-07-29T04:21:15;98211.22;;;21.28;100.00
20023;BME280;10172;42.054;24.546;2022-07-29T04:23:41;98191.13;;;21.06;100.00
20023;BME280;10172;42.054;24.546;2022-07-29T04:26:06;98200.41;;;21.28;100.00
20023;BME280;10172;42.054;24.546;2022-07-29T04:28:35;98200.78;;;21.17;100.00
20023;BME280;10172;42.054;24.546;2022-07-29T04:31:00;98209.72;;;21.88;100.00
20023;BME280;10172;42.054;24.546;2022-07-29T04:33:25;98189.41;;;22.15;100.00
20023;BME280;10172;42.054;24.546;2022-07-29T04:35:51;98191.31;;;22.37;100.00
20023;BME280;10172;42.054;24.546;2022-07-29T04:38:16;98199.72;;;22.73;100.00
20023;BME280;10172;42.054;24.546;2022-07-29T04:40:42;98200.47;;;22.82;100.00
20023;BME280;10172;42.054;24.546;2022-07-29T04:43:07;98218.16;;;22.24;100.00
20023;BME280;10172;42.054;24.546;2022-07-29T04:45:33;98192.78;;;22.71;100.00
20023;BME280;10172;42.054;24.546;2022-07-29T04:47:58;98199.22;;;22.70;100.00
20023;BME280;10172;42.054;24.546;2022-07-29T04:50:23;98199.94;;;22.63;100.00
20023;BME280;10172;42.054;24.546;2022-07-29T04:52:49;98209.63;;;23.18;100.00
20023;BME280;10172;42.054;24.546;2022-07-29T04:55:14;98228.53;;;23.26;100.00
20023;BME280;10172;42.054;24.546;2022-07-29T04:57:40;98194.72;;;23.51;99.83
20023;BME280;10172;42.054;24.546;2022-07-29T05:00:06;98217.44;;;23.94;95.82
20023;BME280;10172;42.054;24.546;2022-07-29T05:02:32;98219.59;;;23.99;96.70
20023;BME280;10172;42.054;24.546;2022-07-29T05:04:57;98211.63;;;24.12;96.14
20023;BME280;10172;42.054;24.546;2022-07-29T05:07:23;98233.97;;;24.43;94.95
20023;BME280;10172;42.054;24.546;2022-07-29T05:09:48;98225.59;;;24.66;92.74
20023;BME280;10172;42.054;24.546;2022-07-29T05:12:14;98193.69;;;24.32;94.71
20023;BME280;10172;42.054;24.546;2022-07-29T05:14:39;98205.66;;;24.59;94.55
20023;BME280;10172;42.054;24.546;2022-07-29T05:17:05;98187.22;;;24.54;93.72
20023;BME280;10172;42.054;24.546;2022-07-29T05:19:30;98229.06;;;24.95;92.68
20023;BME280;10172;42.054;24.546;2022-07-29T05:21:57;98238.84;;;25.11;92.19
20023;BME280;10172;42.054;24.546;2022-07-29T05:24:22;98217.06;;;24.90;91.11
20023;BME280;10172;42.054;24.546;2022-07-29T05:26:47;98212.22;;;24.85;91.23
20023;BME280;10172;42.054;24.546;2022-07-29T05:29:13;98210.31;;;25.07;90.38
20023;BME280;10172;42.054;24.546;2022-07-29T05:31:38;98204.94;;;24.50;93.11
20023;BME280;10172;42.054;24.546;2022-07-29T05:34:04;98207.00;;;24.84;92.37
20023;BME280;10172;42.054;24.546;2022-07-29T05:36:29;98213.66;;;25.03;91.43
20023;BME280;10172;42.054;24.546;2022-07-29T05:38:54;98221.31;;;25.20;90.56
20023;BME280;10172;42.054;24.546;2022-07-29T05:41:20;98222.22;;;25.55;88.90
20023;BME280;10172;42.054;24.546;2022-07-29T05:43:46;98218.31;;;25.64;87.41
20023;BME280;10172;42.054;24.546;2022-07-29T05:46:11;98225.06;;;25.68;87.06
20023;BME280;10172;42.054;24.546;2022-07-29T05:48:39;98256.81;;;25.95;85.67
20023;BME280;10172;42.054;24.546;2022-07-29T05:51:04;98228.16;;;25.99;84.32
20023;BME280;10172;42.054;24.546;2022-07-29T05:53:30;98252.09;;;26.10;83.81
20023;BME280;10172;42.054;24.546;2022-07-29T05:55:55;98255.47;;;26.12;83.53
20023;BME280;10172;42.054;24.546;2022-07-29T05:58:21;98220.13;;;25.91;83.27
20023;BME280;10172;42.054;24.546;2022-07-29T06:00:47;98260.03;;;26.46;82.73
20023;BME280;10172;42.054;24.546;2022-07-29T06:03:12;98247.84;;;26.36;82.40
20023;BME280;10172;42.054;24.546;2022-07-29T06:05:38;98225.47;;;26.12;82.06
20023;BME280;10172;42.054;24.546;2022-07-29T06:08:03;98257.25;;;26.33;81.93
20023;BME280;10172;42.054;24.546;2022-07-29T06:10:32;98258.41;;;26.65;79.90
20023;BME280;10172;42.054;24.546;2022-07-29T06:12:58;98239.31;;;26.65;79.59
20023;BME280;10172;42.054;24.546;2022-07-29T06:15:23;98250.28;;;26.85;78.53
20023;BME280;10172;42.054;24.546;2022-07-29T06:17:49;98231.44;;;27.16;75.95
20023;BME280;10172;42.054;24.546;2022-07-29T06:20:14;98239.81;;;26.88;76.39
20023;BME280;10172;42.054;24.546;2022-07-29T06:22:39;98266.28;;;27.07;76.35
20023;BME280;10172;42.054;24.546;2022-07-29T06:25:05;98252.44;;;27.02;75.18
20023;BME280;10172;42.054;24.546;2022-07-29T06:27:31;98266.09;;;27.15;74.42
20023;BME280;10172;42.054;24.546;2022-07-29T06:29:56;98251.38;;;27.56;73.49
20023;BME280;10172;42.054;24.546;2022-07-29T06:32:22;98244.50;;;27.47;73.22
20023;BME280;10172;42.054;24.546;2022-07-29T06:34:47;98265.00;;;27.95;71.78
20023;BME280;10172;42.054;24.546;2022-07-29T06:37:13;98221.72;;;27.79;71.45
20023;BME280;10172;42.054;24.546;2022-07-29T06:39:38;98222.53;;;27.79;70.33
20023;BME280;10172;42.054;24.546;2022-07-29T06:42:04;98235.03;;;28.26;69.91
20023;BME280;10172;42.054;24.546;2022-07-29T06:44:29;98256.91;;;28.33;68.63
20023;BME280;10172;42.054;24.546;2022-07-29T06:46:56;98231.44;;;28.32;66.79
20023;BME280;10172;42.054;24.546;2022-07-29T06:49:21;98240.88;;;28.36;67.83
20023;BME280;10172;42.054;24.546;2022-07-29T06:51:48;98239.56;;;28.45;67.92
20023;BME280;10172;42.054;24.546;2022-07-29T06:54:14;98250.69;;;28.95;66.05
20023;BME280;10172;42.054;24.546;2022-07-29T06:56:39;98266.28;;;27.93;68.20
20023;BME280;10172;42.054;24.546;2022-07-29T06:59:10;98265.44;;;27.40;72.05
20023;BME280;10172;42.054;24.546;2022-07-29T07:01:37;98251.31;;;27.95;70.10
20023;BME280;10172;42.054;24.546;2022-07-29T07:04:03;98231.00;;;27.65;68.52
20023;BME280;10172;42.054;24.546;2022-07-29T07:06:29;98258.03;;;27.99;70.41
20023;BME280;10172;42.054;24.546;2022-07-29T07:08:54;98235.06;;;28.58;68.00
20023;BME280;10172;42.054;24.546;2022-07-29T07:11:20;98234.81;;;28.72;66.44
20023;BME280;10172;42.054;24.546;2022-07-29T07:13:45;98245.66;;;28.47;67.04
20023;BME280;10172;42.054;24.546;2022-07-29T07:16:11;98234.84;;;28.66;66.77
20023;BME280;10172;42.054;24.546;2022-07-29T07:18:36;98243.78;;;29.42;64.49
20023;BME280;10172;42.054;24.546;2022-07-29T07:21:02;98238.97;;;29.87;63.31
20023;BME280;10172;42.054;24.546;2022-07-29T07:23:27;98232.19;;;29.46;62.98
20023;BME280;10172;42.054;24.546;2022-07-29T07:25:52;98239.31;;;29.47;62.70
20023;BME280;10172;42.054;24.546;2022-07-29T07:28:18;98262.22;;;29.84;62.31
20023;BME280;10172;42.054;24.546;2022-07-29T07:30:44;98227.56;;;30.08;60.27
20023;BME280;10172;42.054;24.546;2022-07-29T07:33:10;98247.38;;;29.42;62.55
20023;BME280;10172;42.054;24.546;2022-07-29T07:35:36;98241.88;;;29.92;62.13
20023;BME280;10172;42.054;24.546;2022-07-29T07:38:01;98245.06;;;30.07;60.56
20023;BME280;10172;42.054;24.546;2022-07-29T07:40:26;98245.16;;;30.37;59.19
20023;BME280;10172;42.054;24.546;2022-07-29T07:42:52;98248.00;;;29.44;63.14
20023;BME280;10172;42.054;24.546;2022-07-29T07:45:17;98235.28;;;29.25;63.77
20023;BME280;10172;42.054;24.546;2022-07-29T07:47:43;98247.50;;;29.97;62.47
20023;BME280;10172;42.054;24.546;2022-07-29T07:50:10;98252.84;;;30.10;61.40
20023;BME280;10172;42.054;24.546;2022-07-29T07:52:46;98246.94;;;30.61;60.54
20023;BME280;10172;42.054;24.546;2022-07-29T07:55:12;98246.88;;;30.97;58.75
20023;BME280;10172;42.054;24.546;2022-07-29T07:57:38;98220.34;;;30.61;58.96
20023;BME280;10172;42.054;24.546;2022-07-29T08:00:04;98230.66;;;30.77;58.49
20023;BME280;10172;42.054;24.546;2022-07-29T08:02:29;98233.00;;;30.62;59.69
20023;BME280;10172;42.054;24.546;2022-07-29T08:04:55;98233.44;;;31.19;57.97
20023;BME280;10172;42.054;24.546;2022-07-29T08:07:20;98206.31;;;31.11;56.59
20023;BME280;10172;42.054;24.546;2022-07-29T08:09:45;98240.53;;;30.97;57.33
20023;BME280;10172;42.054;24.546;2022-07-29T08:12:11;98230.44;;;31.09;57.99
20023;BME280;10172;42.054;24.546;2022-07-29T08:14:36;98217.38;;;31.57;55.18
20023;BME280;10172;42.054;24.546;2022-07-29T08:17:02;98229.75;;;28.31;65.88
20023;BME280;10172;42.054;24.546;2022-07-29T08:19:27;98195.25;;;28.30;67.02
20023;BME280;10172;42.054;24.546;2022-07-29T08:21:53;98233.41;;;29.50;63.51
20023;BME280;10172;42.054;24.546;2022-07-29T08:24:19;98216.19;;;29.86;62.39
20023;BME280;10172;42.054;24.546;2022-07-29T08:27:03;98224.31;;;30.95;58.49
20023;BME280;10172;42.054;24.546;2022-07-29T08:29:28;98215.59;;;31.10;56.46
20023;BME280;10172;42.054;24.546;2022-07-29T08:31:54;98219.88;;;30.94;55.31
20023;BME280;10172;42.054;24.546;2022-07-29T08:34:19;98192.78;;;30.98;54.75
20023;BME280;10172;42.054;24.546;2022-07-29T08:36:44;98229.19;;;31.69;53.12
20023;BME280;10172;42.054;24.546;2022-07-29T08:39:10;98192.78;;;30.98;54.10
20023;BME280;10172;42.054;24.546;2022-07-29T08:41:35;98219.44;;;31.09;54.65
20023;BME280;10172;42.054;24.546;2022-07-29T08:44:01;98200.81;;;31.11;53.91
20023;BME280;10172;42.054;24.546;2022-07-29T08:46:26;98219.78;;;31.12;53.83
20023;BME280;10172;42.054;24.546;2022-07-29T08:48:52;98196.81;;;31.48;51.61
20023;BME280;10172;42.054;24.546;2022-07-29T08:51:19;98212.63;;;31.23;52.70
20023;BME280;10172;42.054;24.546;2022-07-29T08:53:47;98215.09;;;30.71;54.79
20023;BME280;10172;42.054;24.546;2022-07-29T08:56:14;98210.28;;;31.50;51.98
20023;BME280;10172;42.054;24.546;2022-07-29T08:58:42;98185.56;;;31.50;50.23
20023;BME280;10172;42.054;24.546;2022-07-29T09:01:08;98186.50;;;31.32;49.68
20023;BME280;10172;42.054;24.546;2022-07-29T09:03:36;98151.03;;;31.65;48.97
20023;BME280;10172;42.054;24.546;2022-07-29T09:06:03;98182.06;;;31.77;47.73
20023;BME280;10172;42.054;24.546;2022-07-29T09:08:30;98177.31;;;31.73;48.05
20023;BME280;10172;42.054;24.546;2022-07-29T09:10:57;98144.94;;;31.52;48.18
20023;BME280;10172;42.054;24.546;2022-07-29T09:13:23;98180.59;;;32.10;47.44
20023;BME280;10172;42.054;24.546;2022-07-29T09:15:50;98176.97;;;32.21;46.19
20023;BME280;10172;42.054;24.546;2022-07-29T09:18:45;98177.34;;;32.24;46.37
20023;BME280;10172;42.054;24.546;2022-07-29T09:21:16;98172.56;;;32.48;46.48
20023;BME280;10172;42.054;24.546;2022-07-29T09:24:08;98167.06;;;32.48;45.78
20023;BME280;10172;42.054;24.546;2022-07-29T09:26:44;98159.31;;;32.73;43.98
20023;BME280;10172;42.054;24.546;2022-07-29T09:29:15;98151.22;;;32.83;44.11
20023;BME280;10172;42.054;24.546;2022-07-29T09:31:44;98169.47;;;33.18;43.52
20023;BME280;10172;42.054;24.546;2022-07-29T09:34:10;98166.47;;;32.74;45.05
20023;BME280;10172;42.054;24.546;2022-07-29T09:36:44;98157.63;;;32.72;44.32
20023;BME280;10172;42.054;24.546;2022-07-29T09:39:10;98148.03;;;33.20;41.79
20023;BME280;10172;42.054;24.546;2022-07-29T09:41:49;98158.34;;;33.62;41.45
20023;BME280;10172;42.054;24.546;2022-07-29T09:44:18;98140.31;;;33.38;41.87
20023;BME280;10172;42.054;24.546;2022-07-29T09:46:59;98162.38;;;33.22;41.23
20023;BME280;10172;42.054;24.546;2022-07-29T09:49:31;98145.91;;;33.27;41.80
20023;BME280;10172;42.054;24.546;2022-07-29T09:54:31;98135.47;;;32.79;40.91
20023;BME280;10172;42.054;24.546;2022-07-29T09:57:06;98143.97;;;33.44;39.96
20023;BME280;10172;42.054;24.546;2022-07-29T09:59:33;98150.34;;;33.28;39.31
20023;BME280;10172;42.054;24.546;2022-07-29T10:01:59;98141.16;;;33.39;38.99
20023;BME280;10172;42.054;24.546;2022-07-29T10:04:36;98136.16;;;33.36;38.29
20023;BME280;10172;42.054;24.546;2022-07-29T10:07:02;98154.84;;;33.34;37.18
20023;BME280;10172;42.054;24.546;2022-07-29T10:09:30;98132.56;;;33.19;36.71
20023;BME280;10172;42.054;24.546;2022-07-29T10:12:12;98134.88;;;33.60;34.79
20023;BME280;10172;42.054;24.546;2022-07-29T10:14:40;98141.66;;;34.12;34.90
20023;BME280;10172;42.054;24.546;2022-07-29T10:17:07;98136.81;;;34.46;33.29
20023;BME280;10172;42.054;24.546;2022-07-29T10:19:34;98130.84;;;33.89;33.01
20023;BME280;10172;42.054;24.546;2022-07-29T10:22:02;98147.91;;;33.86;33.52
20023;BME280;10172;42.054;24.546;2022-07-29T10:24:29;98143.16;;;33.43;33.79
20023;BME280;10172;42.054;24.546;2022-07-29T10:26:55;98141.09;;;33.72;33.75
20023;BME280;10172;42.054;24.546;2022-07-29T10:29:21;98135.03;;;33.92;32.96
20023;BME280;10172;42.054;24.546;2022-07-29T10:35:18;98132.19;;;33.87;32.23
20023;BME280;10172;42.054;24.546;2022-07-29T10:38:18;98116.94;;;34.22;32.15
20023;BME280;10172;42.054;24.546;2022-07-29T10:46:26;98112.22;;;34.71;31.31
20023;BME280;10172;42.054;24.546;2022-07-29T10:59:47;98091.88;;;34.29;31.07
20023;BME280;10172;42.054;24.546;2022-07-29T11:07:24;98067.56;;;35.16;29.27
20023;BME280;10172;42.054;24.546;2022-07-29T11:15:04;98072.47;;;35.51;29.37
20023;BME280;10172;42.054;24.546;2022-07-29T11:28:38;98055.38;;;35.54;28.83
20023;BME280;10172;42.054;24.546;2022-07-29T11:31:05;98036.13;;;35.27;28.04
20023;BME280;10172;42.054;24.546;2022-07-29T11:33:33;98053.78;;;35.68;28.16
20023;BME280;10172;42.054;24.546;2022-07-29T11:36:13;98041.97;;;35.36;27.20
20023;BME280;10172;42.054;24.546;2022-07-29T11:38:39;98053.53;;;35.80;27.14
20023;BME280;10172;42.054;24.546;2022-07-29T11:43:54;98038.94;;;35.37;27.52
20023;BME280;10172;42.054;24.546;2022-07-29T11:46:46;98044.50;;;35.48;27.57
20023;BME280;10172;42.054;24.546;2022-07-29T11:49:19;98027.34;;;35.40;27.91
20023;BME280;10172;42.054;24.546;2022-07-29T11:51:50;98022.34;;;35.37;27.86
20023;BME280;10172;42.054;24.546;2022-07-29T11:54:16;98027.06;;;36.04;27.65
20023;BME280;10172;42.054;24.546;2022-07-29T11:56:47;97997.69;;;35.93;27.97
20023;BME280;10172;42.054;24.546;2022-07-29T11:59:13;97998.13;;;35.55;28.18
20023;BME280;10172;42.054;24.546;2022-07-29T12:01:52;98022.31;;;35.32;29.12
20023;BME280;10172;42.054;24.546;2022-07-29T12:04:17;98007.63;;;35.22;29.19
20023;BME280;10172;42.054;24.546;2022-07-29T12:06:43;98002.00;;;35.64;29.40
20023;BME280;10172;42.054;24.546;2022-07-29T12:09:13;98006.47;;;35.18;29.15
20023;BME280;10172;42.054;24.546;2022-07-29T12:11:39;98015.88;;;35.17;30.13
20023;BME280;10172;42.054;24.546;2022-07-29T12:14:04;97997.00;;;35.61;29.40
20023;BME280;10172;42.054;24.546;2022-07-29T12:16:36;98014.22;;;35.73;29.57
20023;BME280;10172;42.054;24.546;2022-07-29T12:19:03;98021.47;;;35.27;30.03
20023;BME280;10172;42.054;24.546;2022-07-29T12:21:49;98012.00;;;35.75;29.86
20023;BME280;10172;42.054;24.546;2022-07-29T12:24:16;98000.84;;;35.50;29.24
20023;BME280;10172;42.054;24.546;2022-07-29T12:26:58;98009.78;;;35.67;29.38
20023;BME280;10172;42.054;24.546;2022-07-29T12:29:24;98013.38;;;35.62;28.72
20023;BME280;10172;42.054;24.546;2022-07-29T12:31:53;97986.13;;;36.26;27.96
20023;BME280;10172;42.054;24.546;2022-07-29T12:34:22;97997.75;;;36.08;27.96
20023;BME280;10172;42.054;24.546;2022-07-29T12:36:48;97986.06;;;35.96;28.31
20023;BME280;10172;42.054;24.546;2022-07-29T12:39:18;97973.28;;;35.80;29.09
20023;BME280;10172;42.054;24.546;2022-07-29T12:41:44;97969.72;;;35.84;29.33
20023;BME280;10172;42.054;24.546;2022-07-29T12:44:10;98001.25;;;35.78;29.12
20023;BME280;10172;42.054;24.546;2022-07-29T12:46:36;97947.56;;;35.79;29.55
20023;BME280;10172;42.054;24.546;2022-07-29T12:49:02;97983.31;;;36.01;29.26
20023;BME280;10172;42.054;24.546;2022-07-29T12:51:37;97971.16;;;36.07;28.98
20023;BME280;10172;42.054;24.546;2022-07-29T12:54:10;97967.25;;;35.93;29.51
20023;BME280;10172;42.054;24.546;2022-07-29T12:56:38;97963.44;;;36.39;28.55
20023;BME280;10172;42.054;24.546;2022-07-29T12:59:20;97977.28;;;36.14;27.72
20023;BME280;10172;42.054;24.546;2022-07-29T13:01:48;97943.44;;;35.97;28.73
20023;BME280;10172;42.054;24.546;2022-07-29T13:04:28;97966.50;;;36.53;29.04
20023;BME280;10172;42.054;24.546;2022-07-29T13:09:40;97959.00;;;36.23;29.23
20023;BME280;10172;42.054;24.546;2022-07-29T13:12:07;97937.31;;;35.70;29.37
20023;BME280;10172;42.054;24.546;2022-07-29T13:17:24;97946.25;;;36.42;29.38
20023;BME280;10172;42.054;24.546;2022-07-29T13:20:04;97960.09;;;36.07;29.26
20023;BME280;10172;42.054;24.546;2022-07-29T13:22:30;97943.78;;;36.66;28.89
20023;BME280;10172;42.054;24.546;2022-07-29T13:25:00;97944.31;;;36.83;28.77
20023;BME280;10172;42.054;24.546;2022-07-29T13:27:31;97947.91;;;36.84;28.59
20023;BME280;10172;42.054;24.546;2022-07-29T13:29:59;97934.09;;;36.58;28.83
20023;BME280;10172;42.054;24.546;2022-07-29T13:32:27;97935.75;;;36.24;29.04
20023;BME280;10172;42.054;24.546;2022-07-29T13:34:53;97954.34;;;36.49;28.93
20023;BME280;10172;42.054;24.546;2022-07-29T13:37:19;97894.22;;;36.14;28.93
20023;BME280;10172;42.054;24.546;2022-07-29T13:39:44;97909.72;;;36.20;29.35
20023;BME280;10172;42.054;24.546;2022-07-29T13:42:10;97933.47;;;36.92;28.08
20023;BME280;10172;42.054;24.546;2022-07-29T13:44:39;97947.31;;;37.07;27.79
20023;BME280;10172;42.054;24.546;2022-07-29T13:47:05;97895.88;;;36.35;27.93
20023;BME280;10172;42.054;24.546;2022-07-29T13:49:31;97910.56;;;36.31;28.34